Morgan Reinauer — WCA3764 — position and weather

sailwx.info

Track history (hours):
 
Tides and Currents Weather Stations Pressure Air Temp Water Temp Dewpoint Dewpoint Depression Visibility Wind Speed Wind Dir Waves Ship Positions

Morgan Reinauer

Owner: REINAUER, HAROLD A, STATEN ISLAND, NY. More information available from US FCC via Universal Licensing System and Coast Guard Vessel Documentation Center.

Last reported at 2018-Feb-18 05:00 UTC. Time now 2018-Feb-18 05:19 UTC.
Position N 40°32' W 074°15'.

Length 158 m; draft 6 m.

Type: Tug. MMSI: 366516380.

Date/timePositionNaut miles runAvg speedWind from/ knotsBaromVisibWave heightAir tempDewpointWater temp
2018-Feb-18 05:00N 40°32' W 074°15'0 0.0
2018-Feb-18 04:30N 40°32' W 074°15'0 0.0
2018-Feb-18 04:00N 40°32' W 074°15'0 0.0
2018-Feb-18 03:30N 40°32' W 074°15'0 0.0
2018-Feb-18 02:59N 40°32' W 074°15'0 0.0
2018-Feb-18 02:30N 40°32' W 074°15'0 0.0
2018-Feb-18 02:00N 40°32' W 074°15'0 0.0
2018-Feb-18 01:29N 40°32' W 074°15'0 0.0
2018-Feb-18 01:00N 40°32' W 074°15'0 0.0
2018-Feb-18 00:30N 40°32' W 074°15'0 0.0
2018-Feb-18 00:00N 40°32' W 074°15'4 7.9
2018-Feb-17 23:30N 40°36' W 074°12'4 7.9
2018-Feb-17 23:00N 40°39' W 074°09'611.8
2018-Feb-17 22:31N 40°40' W 074°02'1 1.2
2018-Feb-17 21:59N 40°40' W 074°01'0 0.0
2018-Feb-17 21:29N 40°40' W 074°01'0 0.0
2018-Feb-17 21:00N 40°40' W 074°01'0 0.0
2018-Feb-17 20:29N 40°40' W 074°01'0 0.0
2018-Feb-17 20:00N 40°40' W 074°01'0 0.0
2018-Feb-17 19:30N 40°40' W 074°01'0 0.0
2018-Feb-17 18:59N 40°40' W 074°01'0 0.0
2018-Feb-17 18:29N 40°40' W 074°01'2 4.5
2018-Feb-17 18:00N 40°39' W 074°04'611.1
2018-Feb-17 17:30N 40°39' W 074°11'5 9.1
2018-Feb-17 16:58N 40°34' W 074°13'3 5.3
2018-Feb-17 16:30N 40°32' W 074°15'0 0.0
2018-Feb-17 15:51N 40°32' W 074°15'0 0.0
2018-Feb-17 15:15N 40°32' W 074°15'0 0.0
2018-Feb-17 14:51N 40°32' W 074°15'0 0.0
2018-Feb-17 14:27N 40°32' W 074°15'0 0.0
2018-Feb-17 14:00N 40°32' W 074°15'0 0.0
2018-Feb-17 13:24N 40°32' W 074°15'0 0.0
2018-Feb-17 13:00N 40°32' W 074°15'0 0.0
2018-Feb-17 12:30N 40°32' W 074°15'0 0.0
2018-Feb-17 12:00N 40°32' W 074°15'0 0.0
2018-Feb-17 11:18N 40°32' W 074°15'0 0.0
2018-Feb-17 10:57N 40°32' W 074°15'0 0.0
2018-Feb-17 10:30N 40°32' W 074°15'0 0.0
2018-Feb-17 10:00N 40°32' W 074°15'0 0.0
2018-Feb-17 09:30N 40°32' W 074°15'0 0.0
2018-Feb-17 08:57N 40°32' W 074°15'0 0.0
2018-Feb-17 08:30N 40°32' W 074°15'0 0.0
2018-Feb-17 08:00N 40°32' W 074°15'0 0.0
2018-Feb-17 07:30N 40°32' W 074°15'0 0.0
2018-Feb-17 06:57N 40°32' W 074°15'0 0.0
2018-Feb-17 06:30N 40°32' W 074°15'2 3.5
2018-Feb-17 06:00N 40°33' W 074°13'3 7.1
2018-Feb-17 05:30N 40°37' W 074°12'4 7.0
2018-Feb-17 05:00N 40°39' W 074°08'3 6.4
2018-Feb-17 04:30N 40°39' W 074°04'4 7.2
2018-Feb-17 04:00N 40°41' W 074°01'5 9.9
2018-Feb-17 03:30N 40°46' W 073°57'3 5.3
2018-Feb-17 03:00N 40°48' W 073°55'3 6.0
2018-Feb-17 02:30N 40°48' W 073°51'3 5.4
2018-Feb-17 01:57N 40°49' W 073°47'3 7.0
2018-Feb-17 01:30N 40°52' W 073°45'7 0.3
2018-Feb-15 22:51N 40°55' W 073°37'3 9.5
2018-Feb-15 22:30N 40°54' W 073°41'5 9.5
2018-Feb-15 22:00N 40°51' W 073°46'4 7.6
2018-Feb-15 21:30N 40°48' W 073°50'4 8.4
2018-Feb-15 21:00N 40°47' W 073°55'4 7.7
2018-Feb-15 20:30N 40°44' W 073°58'3 6.9
2018-Feb-15 20:01N 40°41' W 074°01'3 6.7
2018-Feb-15 19:30N 40°39' W 074°04'3 6.8
2018-Feb-15 19:01N 40°39' W 074°08'3 5.5
2018-Feb-15 18:30N 40°38' W 074°12'2 4.1
2018-Feb-15 18:01N 40°36' W 074°12'3 5.6
2018-Feb-15 17:29N 40°33' W 074°13'2 3.9
2018-Feb-15 17:00N 40°32' W 074°15'0 0.0
2018-Feb-15 15:03N 40°32' W 074°15'0 0.4
2018-Feb-15 14:54N 40°32' W 074°15'0 0.0
2018-Feb-15 14:30N 40°32' W 074°15'0 0.1
2018-Feb-15 13:57N 40°32' W 074°15'0 0.0
2018-Feb-15 13:21N 40°32' W 074°15'0 0.0
2018-Feb-15 12:57N 40°32' W 074°15'0 0.0
2018-Feb-15 12:27N 40°32' W 074°15'0 0.0
2018-Feb-15 11:57N 40°32' W 074°15'0 0.0
2018-Feb-15 11:27N 40°32' W 074°15'0 0.0
2018-Feb-15 10:57N 40°32' W 074°15'0 0.0
2018-Feb-15 10:27N 40°32' W 074°15'0 0.0
2018-Feb-15 09:51N 40°32' W 074°15'0 0.0
2018-Feb-15 09:27N 40°32' W 074°15'0 0.0
2018-Feb-15 08:45N 40°32' W 074°15'0 0.0
2018-Feb-15 08:27N 40°32' W 074°15'0 0.0
2018-Feb-15 07:57N 40°32' W 074°15'0 0.0
2018-Feb-15 07:27N 40°32' W 074°15'0 0.0
2018-Feb-15 06:57N 40°32' W 074°15'0 0.0
2018-Feb-15 06:21N 40°32' W 074°15'0 0.0
2018-Feb-15 05:57N 40°32' W 074°15'0 0.0
2018-Feb-15 05:15N 40°32' W 074°15'0 0.0
2018-Feb-15 04:57N 40°32' W 074°15'0 0.0
2018-Feb-15 04:27N 40°32' W 074°15'0 0.0
2018-Feb-15 03:57N 40°32' W 074°15'0 0.0
2018-Feb-15 03:27N 40°32' W 074°15'0 0.0
2018-Feb-15 02:57N 40°32' W 074°15'0 0.0
2018-Feb-15 02:27N 40°32' W 074°15'0 0.0
2018-Feb-15 01:57N 40°32' W 074°15'0 0.0
2018-Feb-15 01:27N 40°32' W 074°15'0 0.0
2018-Feb-15 00:57N 40°32' W 074°15'0 0.0
2018-Feb-15 00:21N 40°32' W 074°15'0 0.0
2018-Feb-14 23:57N 40°32' W 074°15'0 0.0
2018-Feb-14 23:27N 40°32' W 074°15'0 0.0
2018-Feb-14 22:15N 40°32' W 074°15'0 0.0
2018-Feb-14 21:57N 40°32' W 074°15'0 0.0
2018-Feb-14 21:21N 40°32' W 074°15'0 0.0
2018-Feb-14 20:50N 40°32' W 074°15'0 0.2
2018-Feb-14 20:30N 40°32' W 074°15'2 3.1
2018-Feb-14 20:00N 40°33' W 074°14'5 9.4
2018-Feb-14 19:30N 40°38' W 074°12'3 5.8
2018-Feb-14 18:56N 40°38' W 074°08'0 0.0
2018-Feb-14 18:29N 40°38' W 074°08'0 0.0
2018-Feb-14 17:59N 40°38' W 074°08'0 0.0
2018-Feb-14 17:26N 40°38' W 074°08'0 0.0
2018-Feb-14 17:00N 40°38' W 074°08'0 0.0
2018-Feb-14 16:30N 40°38' W 074°08'0 0.0
2018-Feb-14 16:00N 40°38' W 074°08'0 0.1
2018-Feb-14 15:30N 40°38' W 074°08'0 0.2
2018-Feb-14 15:00N 40°38' W 074°08'0 0.0
2018-Feb-14 14:30N 40°38' W 074°08'0 0.0
2018-Feb-14 14:00N 40°38' W 074°08'0 0.0
2018-Feb-14 13:30N 40°38' W 074°08'0 0.8
2018-Feb-14 13:00N 40°39' W 074°08'4 8.4
2018-Feb-14 12:30N 40°36' W 074°12'4 7.5
2018-Feb-14 11:59N 40°32' W 074°15'0 0.0
2018-Feb-14 11:26N 40°32' W 074°15'0 0.0
2018-Feb-14 10:59N 40°32' W 074°15'0 0.0
2018-Feb-14 10:26N 40°32' W 074°15'0 0.0
2018-Feb-14 09:56N 40°32' W 074°15'0 0.0
2018-Feb-14 09:29N 40°32' W 074°15'0 0.0
2018-Feb-14 08:50N 40°32' W 074°15'0 0.0
2018-Feb-14 08:26N 40°32' W 074°15'0 0.0
2018-Feb-14 07:59N 40°32' W 074°15'0 0.0
2018-Feb-14 07:29N 40°32' W 074°15'0 0.0
2018-Feb-14 06:56N 40°32' W 074°15'0 0.0
2018-Feb-14 06:29N 40°32' W 074°15'0 0.0
2018-Feb-14 05:59N 40°32' W 074°15'0 0.0
2018-Feb-14 05:29N 40°32' W 074°15'0 0.0
2018-Feb-14 04:53N 40°32' W 074°15'0 0.0
2018-Feb-14 04:29N 40°32' W 074°15'0 0.0
2018-Feb-14 03:59N 40°32' W 074°15'0 0.0
2018-Feb-14 03:29N 40°32' W 074°15'0 0.0
2018-Feb-14 02:59N 40°32' W 074°15'0 0.0
2018-Feb-14 02:29N 40°32' W 074°15'0 0.0
2018-Feb-14 01:59N 40°32' W 074°15'0 0.0
2018-Feb-14 01:26N 40°32' W 074°15'0 0.0
2018-Feb-14 00:59N 40°32' W 074°15'0 0.0
2018-Feb-14 00:26N 40°32' W 074°15'0 0.0
2018-Feb-13 23:56N 40°32' W 074°15'0 0.0
2018-Feb-13 23:30N 40°32' W 074°15'1 1.3
2018-Feb-13 22:59N 40°32' W 074°15'3 4.5
2018-Feb-13 22:19N 40°30' W 074°11'3 9.4
2018-Feb-13 21:58N 40°30' W 074°07'4 9.3
2018-Feb-13 21:30N 40°29' W 074°02'4 8.9
2018-Feb-13 21:00N 40°27' W 073°56'4 8.8
2018-Feb-13 20:30N 40°23' W 073°55'34 8.6
2018-Feb-13 16:31N 39°48' W 073°58'1 8.0
2018-Feb-13 16:23N 39°48' W 073°58'4 7.8
2018-Feb-13 15:53N 39°44' W 073°59'8 8.1
2018-Feb-13 14:54N 39°37' W 074°04'65 7.4
2018-Feb-13 06:06N 38°50' W 075°03'110.2
2018-Feb-13 05:58N 38°51' W 075°04'510.4
2018-Feb-13 05:30N 38°56' W 075°06'510.5
2018-Feb-13 05:00N 39°01' W 075°09'510.4
2018-Feb-13 04:30N 39°05' W 075°12'510.3
2018-Feb-13 04:00N 39°10' W 075°15'5 9.9
2018-Feb-13 03:30N 39°14' W 075°18'5 9.5
2018-Feb-13 03:00N 39°18' W 075°22'5 9.1
2018-Feb-13 02:30N 39°21' W 075°26'4 8.2
2018-Feb-13 02:00N 39°24' W 075°30'4 7.6
2018-Feb-13 01:30N 39°27' W 075°33'3 6.6
2018-Feb-13 01:00N 39°30' W 075°33'3 6.7
2018-Feb-13 00:30N 39°33' W 075°33'3 5.1
2018-Feb-13 00:00N 39°35' W 075°36'0 0.0
2018-Feb-12 23:28N 39°35' W 075°36'0 0.0
2018-Feb-12 22:58N 39°35' W 075°36'0 0.0
2018-Feb-12 22:28N 39°35' W 075°36'0 0.0
2018-Feb-12 21:58N 39°35' W 075°36'0 0.0
2018-Feb-12 21:28N 39°35' W 075°36'0 0.0
2018-Feb-12 20:58N 39°35' W 075°36'0 0.0
2018-Feb-12 20:28N 39°35' W 075°36'0 0.0
2018-Feb-12 19:58N 39°35' W 075°36'0 0.0
2018-Feb-12 19:28N 39°35' W 075°36'0 0.0
2018-Feb-12 18:58N 39°35' W 075°36'0 0.0
2018-Feb-12 18:28N 39°35' W 075°36'0 0.0
2018-Feb-12 17:58N 39°35' W 075°36'0 0.0
2018-Feb-12 17:28N 39°35' W 075°36'0 0.0
2018-Feb-12 16:58N 39°35' W 075°36'0 0.0
2018-Feb-12 16:28N 39°35' W 075°36'0 0.0
2018-Feb-12 15:58N 39°35' W 075°36'0 0.0
2018-Feb-12 15:16N 39°35' W 075°36'0 0.0
2018-Feb-12 14:58N 39°35' W 075°36'0 0.0
2018-Feb-12 14:28N 39°35' W 075°36'0 0.0
2018-Feb-12 13:58N 39°35' W 075°36'0 0.0
2018-Feb-12 13:28N 39°35' W 075°36'0 0.0
2018-Feb-12 12:58N 39°35' W 075°36'0 0.0
2018-Feb-12 12:28N 39°35' W 075°36'0 0.0
2018-Feb-12 11:58N 39°35' W 075°36'0 0.0
2018-Feb-12 11:28N 39°35' W 075°36'0 0.0
2018-Feb-12 10:58N 39°35' W 075°36'0 0.0
2018-Feb-12 10:28N 39°35' W 075°36'0 0.0
2018-Feb-12 10:01N 39°35' W 075°36'0 0.0
2018-Feb-12 09:28N 39°35' W 075°36'0 0.0
2018-Feb-12 08:55N 39°35' W 075°36'0 0.0
2018-Feb-12 08:31N 39°35' W 075°36'0 0.0
2018-Feb-12 08:00N 39°35' W 075°36'0 0.0
2018-Feb-12 07:28N 39°35' W 075°36'0 0.0
2018-Feb-12 07:01N 39°35' W 075°36'0 0.0
2018-Feb-12 06:28N 39°35' W 075°36'0 0.0
2018-Feb-12 05:58N 39°35' W 075°36'0 0.0
2018-Feb-12 05:28N 39°35' W 075°36'0 0.0
2018-Feb-12 04:58N 39°35' W 075°36'0 0.0
2018-Feb-12 04:28N 39°35' W 075°36'0 0.0
2018-Feb-12 04:01N 39°35' W 075°36'0 0.0
2018-Feb-12 03:31N 39°35' W 075°36'0 0.0
2018-Feb-12 03:00N 39°35' W 075°36'0 0.0
2018-Feb-12 02:28N 39°35' W 075°36'0 0.0
2018-Feb-12 02:01N 39°35' W 075°36'0 0.1
2018-Feb-12 01:30N 39°35' W 075°36'2 4.9
2018-Feb-12 01:01N 39°34' W 075°33'1 2.2
2018-Feb-12 00:29N 39°33' W 075°33'0 0.1
2018-Feb-12 00:00N 39°33' W 075°33'0 0.0
2018-Feb-11 23:30N 39°33' W 075°33'0 0.0
2018-Feb-11 22:59N 39°33' W 075°33'0 0.0
2018-Feb-11 22:29N 39°33' W 075°33'0 0.0
2018-Feb-11 21:59N 39°33' W 075°33'0 0.3
2018-Feb-11 21:29N 39°32' W 075°33'0 0.1
2018-Feb-11 21:00N 39°32' W 075°33'0 0.1
2018-Feb-11 20:30N 39°32' W 075°33'0 0.0
2018-Feb-11 19:59N 39°32' W 075°33'0 0.0
2018-Feb-11 19:30N 39°32' W 075°33'0 0.0
2018-Feb-11 19:00N 39°32' W 075°33'0 0.0
2018-Feb-11 18:29N 39°32' W 075°33'0 0.0
2018-Feb-11 18:00N 39°32' W 075°33'0 0.0
2018-Feb-11 17:30N 39°32' W 075°33'0 0.0
2018-Feb-11 16:59N 39°32' W 075°33'0 0.1
2018-Feb-11 16:29N 39°32' W 075°33'0 0.0
2018-Feb-11 16:00N 39°32' W 075°33'0 0.0
2018-Feb-11 15:27N 39°32' W 075°33'0 0.0
2018-Feb-11 15:00N 39°32' W 075°33'0 0.3
2018-Feb-11 14:29N 39°32' W 075°33'0 0.2
2018-Feb-11 13:59N 39°33' W 075°33'0 0.1
2018-Feb-11 13:29N 39°33' W 075°33'0 0.0
2018-Feb-11 12:59N 39°33' W 075°33'0 0.0
2018-Feb-11 12:29N 39°33' W 075°33'0 0.0
2018-Feb-11 11:59N 39°33' W 075°33'0 0.0
2018-Feb-11 11:29N 39°33' W 075°33'0 0.0
2018-Feb-11 10:59N 39°33' W 075°33'0 0.0
2018-Feb-11 10:30N 39°33' W 075°33'0 0.0
2018-Feb-11 09:59N 39°33' W 075°33'0 0.0
2018-Feb-11 09:29N 39°33' W 075°33'0 0.2
2018-Feb-11 08:59N 39°33' W 075°33'0 0.3
2018-Feb-11 08:29N 39°32' W 075°33'0 0.0
2018-Feb-11 07:59N 39°32' W 075°33'0 0.0
2018-Feb-11 07:29N 39°32' W 075°33'0 0.0
2018-Feb-11 06:59N 39°32' W 075°33'0 0.0
2018-Feb-11 06:29N 39°32' W 075°33'0 0.0
2018-Feb-11 05:59N 39°32' W 075°33'0 0.0
2018-Feb-11 05:29N 39°32' W 075°33'0 0.0
2018-Feb-11 04:59N 39°32' W 075°33'0 0.0
2018-Feb-11 04:29N 39°32' W 075°33'0 0.0
2018-Feb-11 03:59N 39°32' W 075°33'0 0.0
2018-Feb-11 03:29N 39°32' W 075°33'0 0.0
2018-Feb-11 02:59N 39°32' W 075°33'0 0.1
2018-Feb-11 02:29N 39°32' W 075°33'0 0.3
2018-Feb-11 01:59N 39°33' W 075°33'0 0.1
2018-Feb-11 01:29N 39°33' W 075°33'0 0.0
2018-Feb-11 00:59N 39°33' W 075°33'0 0.0
2018-Feb-11 00:29N 39°33' W 075°33'0 0.0
2018-Feb-10 23:59N 39°33' W 075°33'0 0.0
2018-Feb-10 23:29N 39°33' W 075°33'0 0.0
2018-Feb-10 22:59N 39°33' W 075°33'0 0.0
2018-Feb-10 22:29N 39°33' W 075°33'0 0.0
2018-Feb-10 21:59N 39°33' W 075°33'0 0.1
2018-Feb-10 21:29N 39°33' W 075°33'0 0.3
2018-Feb-10 20:59N 39°32' W 075°33'0 0.1
2018-Feb-10 20:29N 39°32' W 075°33'0 0.0
2018-Feb-10 19:59N 39°32' W 075°33'0 0.0
2018-Feb-10 19:29N 39°32' W 075°33'0 0.0
2018-Feb-10 18:59N 39°32' W 075°33'0 0.0
2018-Feb-10 18:29N 39°32' W 075°33'0 0.0
2018-Feb-10 17:59N 39°32' W 075°33'0 0.0
2018-Feb-10 17:29N 39°32' W 075°33'0 0.0
2018-Feb-10 16:59N 39°32' W 075°33'0 0.0
2018-Feb-10 16:29N 39°32' W 075°33'0 0.1
2018-Feb-10 15:59N 39°32' W 075°33'0 0.0
2018-Feb-10 15:29N 39°32' W 075°33'0 0.0
2018-Feb-10 14:59N 39°32' W 075°33'0 0.0
2018-Feb-10 14:29N 39°32' W 075°33'0 0.2
2018-Feb-10 14:00N 39°32' W 075°33'0 0.3
2018-Feb-10 13:29N 39°32' W 075°33'0 0.1
2018-Feb-10 12:59N 39°33' W 075°33'0 0.1
2018-Feb-10 12:29N 39°33' W 075°33'0 0.0
2018-Feb-10 11:59N 39°33' W 075°33'0 0.0
2018-Feb-10 11:29N 39°33' W 075°33'0 0.0
2018-Feb-10 10:59N 39°33' W 075°33'0 0.0
2018-Feb-10 10:29N 39°33' W 075°33'0 0.0
2018-Feb-10 09:59N 39°33' W 075°33'0 0.3
2018-Feb-10 09:29N 39°33' W 075°33'0 0.3
2018-Feb-10 08:59N 39°33' W 075°33'1 1.5
2018-Feb-10 08:30N 39°32' W 075°33'4 8.9
2018-Feb-10 08:01N 39°27' W 075°34'5 9.7
2018-Feb-10 07:30N 39°24' W 075°29'5 9.3
2018-Feb-10 07:01N 39°20' W 075°25'5 9.3
2018-Feb-10 06:30N 39°17' W 075°21'5 9.4
2018-Feb-10 06:00N 39°13' W 075°18'5 9.2
2018-Feb-10 05:30N 39°09' W 075°15'5 9.6
2018-Feb-10 05:00N 39°05' W 075°11'5 9.5
2018-Feb-10 04:29N 39°01' W 075°09'15 8.2
2018-Feb-10 02:38N 38°48' W 074°57'1 9.2
2018-Feb-10 02:30N 38°49' W 074°56'5 9.3
2018-Feb-10 01:59N 38°51' W 074°50'5 9.5
2018-Feb-10 01:30N 38°54' W 074°47'109 6.8
2018-Feb-09 09:30N 40°38' W 074°04'1 1.9
2018-Feb-09 09:00N 40°39' W 074°04'4 8.9
2018-Feb-09 08:30N 40°42' W 074°00'3 6.3
2018-Feb-09 08:00N 40°45' W 073°58'10 6.5
2018-Feb-09 06:30N 40°50' W 073°47'  
Track history (hours):
 
Tides and Currents Weather Stations Pressure Air Temp Water Temp Dewpoint Dewpoint Depression Visibility Wind Speed Wind Dir Waves Ship Positions

Morgan Reinauer

Owner: REINAUER, HAROLD A, STATEN ISLAND, NY. More information available from US FCC via Universal Licensing System and Coast Guard Vessel Documentation Center.

Last reported at 2018-Feb-18 05:00 UTC. Time now 2018-Feb-18 05:19 UTC.
Position N 40°32' W 074°15'.

Length 158 m; draft 6 m.

Type: Tug. MMSI: 366516380.

Date/timePositionNaut miles runAvg speedWind from/ knotsBaromVisibWave heightAir tempDewpointWater temp
2018-Feb-18 05:00N 40°32' W 074°15'0 0.0
2018-Feb-18 04:30N 40°32' W 074°15'0 0.0
2018-Feb-18 04:00N 40°32' W 074°15'0 0.0
2018-Feb-18 03:30N 40°32' W 074°15'0 0.0
2018-Feb-18 02:59N 40°32' W 074°15'0 0.0
2018-Feb-18 02:30N 40°32' W 074°15'0 0.0
2018-Feb-18 02:00N 40°32' W 074°15'0 0.0
2018-Feb-18 01:29N 40°32' W 074°15'0 0.0
2018-Feb-18 01:00N 40°32' W 074°15'0 0.0
2018-Feb-18 00:30N 40°32' W 074°15'0 0.0
2018-Feb-18 00:00N 40°32' W 074°15'4 7.9
2018-Feb-17 23:30N 40°36' W 074°12'4 7.9
2018-Feb-17 23:00N 40°39' W 074°09'611.8
2018-Feb-17 22:31N 40°40' W 074°02'1 1.2
2018-Feb-17 21:59N 40°40' W 074°01'0 0.0
2018-Feb-17 21:29N 40°40' W 074°01'0 0.0
2018-Feb-17 21:00N 40°40' W 074°01'0 0.0
2018-Feb-17 20:29N 40°40' W 074°01'0 0.0
2018-Feb-17 20:00N 40°40' W 074°01'0 0.0
2018-Feb-17 19:30N 40°40' W 074°01'0 0.0
2018-Feb-17 18:59N 40°40' W 074°01'0 0.0
2018-Feb-17 18:29N 40°40' W 074°01'2 4.5
2018-Feb-17 18:00N 40°39' W 074°04'611.1
2018-Feb-17 17:30N 40°39' W 074°11'5 9.1
2018-Feb-17 16:58N 40°34' W 074°13'3 5.3
2018-Feb-17 16:30N 40°32' W 074°15'0 0.0
2018-Feb-17 15:51N 40°32' W 074°15'0 0.0
2018-Feb-17 15:15N 40°32' W 074°15'0 0.0
2018-Feb-17 14:51N 40°32' W 074°15'0 0.0
2018-Feb-17 14:27N 40°32' W 074°15'0 0.0
2018-Feb-17 14:00N 40°32' W 074°15'0 0.0
2018-Feb-17 13:24N 40°32' W 074°15'0 0.0
2018-Feb-17 13:00N 40°32' W 074°15'0 0.0
2018-Feb-17 12:30N 40°32' W 074°15'0 0.0
2018-Feb-17 12:00N 40°32' W 074°15'0 0.0
2018-Feb-17 11:18N 40°32' W 074°15'0 0.0
2018-Feb-17 10:57N 40°32' W 074°15'0 0.0
2018-Feb-17 10:30N 40°32' W 074°15'0 0.0
2018-Feb-17 10:00N 40°32' W 074°15'0 0.0
2018-Feb-17 09:30N 40°32' W 074°15'0 0.0
2018-Feb-17 08:57N 40°32' W 074°15'0 0.0
2018-Feb-17 08:30N 40°32' W 074°15'0 0.0
2018-Feb-17 08:00N 40°32' W 074°15'0 0.0
2018-Feb-17 07:30N 40°32' W 074°15'0 0.0
2018-Feb-17 06:57N 40°32' W 074°15'0 0.0
2018-Feb-17 06:30N 40°32' W 074°15'2 3.5
2018-Feb-17 06:00N 40°33' W 074°13'3 7.1
2018-Feb-17 05:30N 40°37' W 074°12'4 7.0
2018-Feb-17 05:00N 40°39' W 074°08'3 6.4
2018-Feb-17 04:30N 40°39' W 074°04'4 7.2
2018-Feb-17 04:00N 40°41' W 074°01'5 9.9
2018-Feb-17 03:30N 40°46' W 073°57'3 5.3
2018-Feb-17 03:00N 40°48' W 073°55'3 6.0
2018-Feb-17 02:30N 40°48' W 073°51'3 5.4
2018-Feb-17 01:57N 40°49' W 073°47'3 7.0
2018-Feb-17 01:30N 40°52' W 073°45'7 0.3
2018-Feb-15 22:51N 40°55' W 073°37'3 9.5
2018-Feb-15 22:30N 40°54' W 073°41'5 9.5
2018-Feb-15 22:00N 40°51' W 073°46'4 7.6
2018-Feb-15 21:30N 40°48' W 073°50'4 8.4
2018-Feb-15 21:00N 40°47' W 073°55'4 7.7
2018-Feb-15 20:30N 40°44' W 073°58'3 6.9
2018-Feb-15 20:01N 40°41' W 074°01'3 6.7
2018-Feb-15 19:30N 40°39' W 074°04'3 6.8
2018-Feb-15 19:01N 40°39' W 074°08'3 5.5
2018-Feb-15 18:30N 40°38' W 074°12'2 4.1
2018-Feb-15 18:01N 40°36' W 074°12'3 5.6
2018-Feb-15 17:29N 40°33' W 074°13'2 3.9
2018-Feb-15 17:00N 40°32' W 074°15'0 0.0
2018-Feb-15 15:03N 40°32' W 074°15'0 0.4
2018-Feb-15 14:54N 40°32' W 074°15'0 0.0
2018-Feb-15 14:30N 40°32' W 074°15'0 0.1
2018-Feb-15 13:57N 40°32' W 074°15'0 0.0
2018-Feb-15 13:21N 40°32' W 074°15'0 0.0
2018-Feb-15 12:57N 40°32' W 074°15'0 0.0
2018-Feb-15 12:27N 40°32' W 074°15'0 0.0
2018-Feb-15 11:57N 40°32' W 074°15'0 0.0
2018-Feb-15 11:27N 40°32' W 074°15'0 0.0
2018-Feb-15 10:57N 40°32' W 074°15'0 0.0
2018-Feb-15 10:27N 40°32' W 074°15'0 0.0
2018-Feb-15 09:51N 40°32' W 074°15'0 0.0
2018-Feb-15 09:27N 40°32' W 074°15'0 0.0
2018-Feb-15 08:45N 40°32' W 074°15'0 0.0
2018-Feb-15 08:27N 40°32' W 074°15'0 0.0
2018-Feb-15 07:57N 40°32' W 074°15'0 0.0
2018-Feb-15 07:27N 40°32' W 074°15'0 0.0
2018-Feb-15 06:57N 40°32' W 074°15'0 0.0
2018-Feb-15 06:21N 40°32' W 074°15'0 0.0
2018-Feb-15 05:57N 40°32' W 074°15'0 0.0
2018-Feb-15 05:15N 40°32' W 074°15'0 0.0
2018-Feb-15 04:57N 40°32' W 074°15'0 0.0
2018-Feb-15 04:27N 40°32' W 074°15'0 0.0
2018-Feb-15 03:57N 40°32' W 074°15'0 0.0
2018-Feb-15 03:27N 40°32' W 074°15'0 0.0
2018-Feb-15 02:57N 40°32' W 074°15'0 0.0
2018-Feb-15 02:27N 40°32' W 074°15'0 0.0
2018-Feb-15 01:57N 40°32' W 074°15'0 0.0
2018-Feb-15 01:27N 40°32' W 074°15'0 0.0
2018-Feb-15 00:57N 40°32' W 074°15'0 0.0
2018-Feb-15 00:21N 40°32' W 074°15'0 0.0
2018-Feb-14 23:57N 40°32' W 074°15'0 0.0
2018-Feb-14 23:27N 40°32' W 074°15'0 0.0
2018-Feb-14 22:15N 40°32' W 074°15'0 0.0
2018-Feb-14 21:57N 40°32' W 074°15'0 0.0
2018-Feb-14 21:21N 40°32' W 074°15'0 0.0
2018-Feb-14 20:50N 40°32' W 074°15'0 0.2
2018-Feb-14 20:30N 40°32' W 074°15'2 3.1
2018-Feb-14 20:00N 40°33' W 074°14'5 9.4
2018-Feb-14 19:30N 40°38' W 074°12'3 5.8
2018-Feb-14 18:56N 40°38' W 074°08'0 0.0
2018-Feb-14 18:29N 40°38' W 074°08'0 0.0
2018-Feb-14 17:59N 40°38' W 074°08'0 0.0
2018-Feb-14 17:26N 40°38' W 074°08'0 0.0
2018-Feb-14 17:00N 40°38' W 074°08'0 0.0
2018-Feb-14 16:30N 40°38' W 074°08'0 0.0
2018-Feb-14 16:00N 40°38' W 074°08'0 0.1
2018-Feb-14 15:30N 40°38' W 074°08'0 0.2
2018-Feb-14 15:00N 40°38' W 074°08'0 0.0
2018-Feb-14 14:30N 40°38' W 074°08'0 0.0
2018-Feb-14 14:00N 40°38' W 074°08'0 0.0
2018-Feb-14 13:30N 40°38' W 074°08'0 0.8
2018-Feb-14 13:00N 40°39' W 074°08'4 8.4
2018-Feb-14 12:30N 40°36' W 074°12'4 7.5
2018-Feb-14 11:59N 40°32' W 074°15'0 0.0
2018-Feb-14 11:26N 40°32' W 074°15'0 0.0
2018-Feb-14 10:59N 40°32' W 074°15'0 0.0
2018-Feb-14 10:26N 40°32' W 074°15'0 0.0
2018-Feb-14 09:56N 40°32' W 074°15'0 0.0
2018-Feb-14 09:29N 40°32' W 074°15'0 0.0
2018-Feb-14 08:50N 40°32' W 074°15'0 0.0
2018-Feb-14 08:26N 40°32' W 074°15'0 0.0
2018-Feb-14 07:59N 40°32' W 074°15'0 0.0
2018-Feb-14 07:29N 40°32' W 074°15'0 0.0
2018-Feb-14 06:56N 40°32' W 074°15'0 0.0
2018-Feb-14 06:29N 40°32' W 074°15'0 0.0
2018-Feb-14 05:59N 40°32' W 074°15'0 0.0
2018-Feb-14 05:29N 40°32' W 074°15'0 0.0
2018-Feb-14 04:53N 40°32' W 074°15'0 0.0
2018-Feb-14 04:29N 40°32' W 074°15'0 0.0
2018-Feb-14 03:59N 40°32' W 074°15'0 0.0
2018-Feb-14 03:29N 40°32' W 074°15'0 0.0
2018-Feb-14 02:59N 40°32' W 074°15'0 0.0
2018-Feb-14 02:29N 40°32' W 074°15'0 0.0
2018-Feb-14 01:59N 40°32' W 074°15'0 0.0
2018-Feb-14 01:26N 40°32' W 074°15'0 0.0
2018-Feb-14 00:59N 40°32' W 074°15'0 0.0
2018-Feb-14 00:26N 40°32' W 074°15'0 0.0
2018-Feb-13 23:56N 40°32' W 074°15'0 0.0
2018-Feb-13 23:30N 40°32' W 074°15'1 1.3
2018-Feb-13 22:59N 40°32' W 074°15'3 4.5
2018-Feb-13 22:19N 40°30' W 074°11'3 9.4
2018-Feb-13 21:58N 40°30' W 074°07'4 9.3
2018-Feb-13 21:30N 40°29' W 074°02'4 8.9
2018-Feb-13 21:00N 40°27' W 073°56'4 8.8
2018-Feb-13 20:30N 40°23' W 073°55'34 8.6
2018-Feb-13 16:31N 39°48' W 073°58'1 8.0
2018-Feb-13 16:23N 39°48' W 073°58'4 7.8
2018-Feb-13 15:53N 39°44' W 073°59'8 8.1
2018-Feb-13 14:54N 39°37' W 074°04'65 7.4
2018-Feb-13 06:06N 38°50' W 075°03'110.2
2018-Feb-13 05:58N 38°51' W 075°04'510.4
2018-Feb-13 05:30N 38°56' W 075°06'510.5
2018-Feb-13 05:00N 39°01' W 075°09'510.4
2018-Feb-13 04:30N 39°05' W 075°12'510.3
2018-Feb-13 04:00N 39°10' W 075°15'5 9.9
2018-Feb-13 03:30N 39°14' W 075°18'5 9.5
2018-Feb-13 03:00N 39°18' W 075°22'5 9.1
2018-Feb-13 02:30N 39°21' W 075°26'4 8.2
2018-Feb-13 02:00N 39°24' W 075°30'4 7.6
2018-Feb-13 01:30N 39°27' W 075°33'3 6.6
2018-Feb-13 01:00N 39°30' W 075°33'3 6.7
2018-Feb-13 00:30N 39°33' W 075°33'3 5.1
2018-Feb-13 00:00N 39°35' W 075°36'0 0.0
2018-Feb-12 23:28N 39°35' W 075°36'0 0.0
2018-Feb-12 22:58N 39°35' W 075°36'0 0.0
2018-Feb-12 22:28N 39°35' W 075°36'0 0.0
2018-Feb-12 21:58N 39°35' W 075°36'0 0.0
2018-Feb-12 21:28N 39°35' W 075°36'0 0.0
2018-Feb-12 20:58N 39°35' W 075°36'0 0.0
2018-Feb-12 20:28N 39°35' W 075°36'0 0.0
2018-Feb-12 19:58N 39°35' W 075°36'0 0.0
2018-Feb-12 19:28N 39°35' W 075°36'0 0.0
2018-Feb-12 18:58N 39°35' W 075°36'0 0.0
2018-Feb-12 18:28N 39°35' W 075°36'0 0.0
2018-Feb-12 17:58N 39°35' W 075°36'0 0.0
2018-Feb-12 17:28N 39°35' W 075°36'0 0.0
2018-Feb-12 16:58N 39°35' W 075°36'0 0.0
2018-Feb-12 16:28N 39°35' W 075°36'0 0.0
2018-Feb-12 15:58N 39°35' W 075°36'0 0.0
2018-Feb-12 15:16N 39°35' W 075°36'0 0.0
2018-Feb-12 14:58N 39°35' W 075°36'0 0.0
2018-Feb-12 14:28N 39°35' W 075°36'0 0.0
2018-Feb-12 13:58N 39°35' W 075°36'0 0.0
2018-Feb-12 13:28N 39°35' W 075°36'0 0.0
2018-Feb-12 12:58N 39°35' W 075°36'0 0.0
2018-Feb-12 12:28N 39°35' W 075°36'0 0.0
2018-Feb-12 11:58N 39°35' W 075°36'0 0.0
2018-Feb-12 11:28N 39°35' W 075°36'0 0.0
2018-Feb-12 10:58N 39°35' W 075°36'0 0.0
2018-Feb-12 10:28N 39°35' W 075°36'0 0.0
2018-Feb-12 10:01N 39°35' W 075°36'0 0.0
2018-Feb-12 09:28N 39°35' W 075°36'0 0.0
2018-Feb-12 08:55N 39°35' W 075°36'0 0.0
2018-Feb-12 08:31N 39°35' W 075°36'0 0.0
2018-Feb-12 08:00N 39°35' W 075°36'0 0.0
2018-Feb-12 07:28N 39°35' W 075°36'0 0.0
2018-Feb-12 07:01N 39°35' W 075°36'0 0.0
2018-Feb-12 06:28N 39°35' W 075°36'0 0.0
2018-Feb-12 05:58N 39°35' W 075°36'0 0.0
2018-Feb-12 05:28N 39°35' W 075°36'0 0.0
2018-Feb-12 04:58N 39°35' W 075°36'0 0.0
2018-Feb-12 04:28N 39°35' W 075°36'0 0.0
2018-Feb-12 04:01N 39°35' W 075°36'0 0.0
2018-Feb-12 03:31N 39°35' W 075°36'0 0.0
2018-Feb-12 03:00N 39°35' W 075°36'0 0.0
2018-Feb-12 02:28N 39°35' W 075°36'0 0.0
2018-Feb-12 02:01N 39°35' W 075°36'0 0.1
2018-Feb-12 01:30N 39°35' W 075°36'2 4.9
2018-Feb-12 01:01N 39°34' W 075°33'1 2.2
2018-Feb-12 00:29N 39°33' W 075°33'0 0.1
2018-Feb-12 00:00N 39°33' W 075°33'0 0.0
2018-Feb-11 23:30N 39°33' W 075°33'0 0.0
2018-Feb-11 22:59N 39°33' W 075°33'0 0.0
2018-Feb-11 22:29N 39°33' W 075°33'0 0.0
2018-Feb-11 21:59N 39°33' W 075°33'0 0.3
2018-Feb-11 21:29N 39°32' W 075°33'0 0.1
2018-Feb-11 21:00N 39°32' W 075°33'0 0.1
2018-Feb-11 20:30N 39°32' W 075°33'0 0.0
2018-Feb-11 19:59N 39°32' W 075°33'0 0.0
2018-Feb-11 19:30N 39°32' W 075°33'0 0.0
2018-Feb-11 19:00N 39°32' W 075°33'0 0.0
2018-Feb-11 18:29N 39°32' W 075°33'0 0.0
2018-Feb-11 18:00N 39°32' W 075°33'0 0.0
2018-Feb-11 17:30N 39°32' W 075°33'0 0.0
2018-Feb-11 16:59N 39°32' W 075°33'0 0.1
2018-Feb-11 16:29N 39°32' W 075°33'0 0.0
2018-Feb-11 16:00N 39°32' W 075°33'0 0.0
2018-Feb-11 15:27N 39°32' W 075°33'0 0.0
2018-Feb-11 15:00N 39°32' W 075°33'0 0.3
2018-Feb-11 14:29N 39°32' W 075°33'0 0.2
2018-Feb-11 13:59N 39°33' W 075°33'0 0.1
2018-Feb-11 13:29N 39°33' W 075°33'0 0.0
2018-Feb-11 12:59N 39°33' W 075°33'0 0.0
2018-Feb-11 12:29N 39°33' W 075°33'0 0.0
2018-Feb-11 11:59N 39°33' W 075°33'0 0.0
2018-Feb-11 11:29N 39°33' W 075°33'0 0.0
2018-Feb-11 10:59N 39°33' W 075°33'0 0.0
2018-Feb-11 10:30N 39°33' W 075°33'0 0.0
2018-Feb-11 09:59N 39°33' W 075°33'0 0.0
2018-Feb-11 09:29N 39°33' W 075°33'0 0.2
2018-Feb-11 08:59N 39°33' W 075°33'0 0.3
2018-Feb-11 08:29N 39°32' W 075°33'0 0.0
2018-Feb-11 07:59N 39°32' W 075°33'0 0.0
2018-Feb-11 07:29N 39°32' W 075°33'0 0.0
2018-Feb-11 06:59N 39°32' W 075°33'0 0.0
2018-Feb-11 06:29N 39°32' W 075°33'0 0.0
2018-Feb-11 05:59N 39°32' W 075°33'0 0.0
2018-Feb-11 05:29N 39°32' W 075°33'0 0.0
2018-Feb-11 04:59N 39°32' W 075°33'0 0.0
2018-Feb-11 04:29N 39°32' W 075°33'0 0.0
2018-Feb-11 03:59N 39°32' W 075°33'0 0.0
2018-Feb-11 03:29N 39°32' W 075°33'0 0.0
2018-Feb-11 02:59N 39°32' W 075°33'0 0.1
2018-Feb-11 02:29N 39°32' W 075°33'0 0.3
2018-Feb-11 01:59N 39°33' W 075°33'0 0.1
2018-Feb-11 01:29N 39°33' W 075°33'0 0.0
2018-Feb-11 00:59N 39°33' W 075°33'0 0.0
2018-Feb-11 00:29N 39°33' W 075°33'0 0.0
2018-Feb-10 23:59N 39°33' W 075°33'0 0.0
2018-Feb-10 23:29N 39°33' W 075°33'0 0.0
2018-Feb-10 22:59N 39°33' W 075°33'0 0.0
2018-Feb-10 22:29N 39°33' W 075°33'0 0.0
2018-Feb-10 21:59N 39°33' W 075°33'0 0.1
2018-Feb-10 21:29N 39°33' W 075°33'0 0.3
2018-Feb-10 20:59N 39°32' W 075°33'0 0.1
2018-Feb-10 20:29N 39°32' W 075°33'0 0.0
2018-Feb-10 19:59N 39°32' W 075°33'0 0.0
2018-Feb-10 19:29N 39°32' W 075°33'0 0.0
2018-Feb-10 18:59N 39°32' W 075°33'0 0.0
2018-Feb-10 18:29N 39°32' W 075°33'0 0.0
2018-Feb-10 17:59N 39°32' W 075°33'0 0.0
2018-Feb-10 17:29N 39°32' W 075°33'0 0.0
2018-Feb-10 16:59N 39°32' W 075°33'0 0.0
2018-Feb-10 16:29N 39°32' W 075°33'0 0.1
2018-Feb-10 15:59N 39°32' W 075°33'0 0.0
2018-Feb-10 15:29N 39°32' W 075°33'0 0.0
2018-Feb-10 14:59N 39°32' W 075°33'0 0.0
2018-Feb-10 14:29N 39°32' W 075°33'0 0.2
2018-Feb-10 14:00N 39°32' W 075°33'0 0.3
2018-Feb-10 13:29N 39°32' W 075°33'0 0.1
2018-Feb-10 12:59N 39°33' W 075°33'0 0.1
2018-Feb-10 12:29N 39°33' W 075°33'0 0.0
2018-Feb-10 11:59N 39°33' W 075°33'0 0.0
2018-Feb-10 11:29N 39°33' W 075°33'0 0.0
2018-Feb-10 10:59N 39°33' W 075°33'0 0.0
2018-Feb-10 10:29N 39°33' W 075°33'0 0.0
2018-Feb-10 09:59N 39°33' W 075°33'0 0.3
2018-Feb-10 09:29N 39°33' W 075°33'0 0.3
2018-Feb-10 08:59N 39°33' W 075°33'1 1.5
2018-Feb-10 08:30N 39°32' W 075°33'4 8.9
2018-Feb-10 08:01N 39°27' W 075°34'5 9.7
2018-Feb-10 07:30N 39°24' W 075°29'5 9.3
2018-Feb-10 07:01N 39°20' W 075°25'5 9.3
2018-Feb-10 06:30N 39°17' W 075°21'5 9.4
2018-Feb-10 06:00N 39°13' W 075°18'5 9.2
2018-Feb-10 05:30N 39°09' W 075°15'5 9.6
2018-Feb-10 05:00N 39°05' W 075°11'5 9.5
2018-Feb-10 04:29N 39°01' W 075°09'15 8.2
2018-Feb-10 02:38N 38°48' W 074°57'1 9.2
2018-Feb-10 02:30N 38°49' W 074°56'5 9.3
2018-Feb-10 01:59N 38°51' W 074°50'5 9.5
2018-Feb-10 01:30N 38°54' W 074°47'109 6.8
2018-Feb-09 09:30N 40°38' W 074°04'1 1.9
2018-Feb-09 09:00N 40°39' W 074°04'4 8.9
2018-Feb-09 08:30N 40°42' W 074°00'3 6.3
2018-Feb-09 08:00N 40°45' W 073°58'10 6.5
2018-Feb-09 06:30N 40°50' W 073°47'  

Dump ship's entire track history